Moffett Field, CA (94035)

3:04 AM PDT on August 04, 2015 (GMT -0700)
Mountain Shadows | | Change Station
CLOSE
Current Station
Personal Weather Station
Location: Mountain View, CA
Elevation: 70 ft
Nearby Weather Stations

Elev 70 ft 37.40 °N, 122.08 °W | Updated 4 minutes ago

Clear
Clear
60.0 °F
Feels Like 60.0 °F
N
0.0
Wind Variable Wind from SSW
Gusts 0.0 mph

Today
High -- | Low -- °F
--% Chance of Precip.
Yesterday
High -- | Low -- °F
Precip. -- in
6:14 AM 8:13 PM
Waning Gibbous, 79% visible
Pressure 29.99 in
Visibility 10.0 miles
Clouds Clear
Dew Point 50 °F
Humidity 69%
Rainfall 0.00 in
Snow Depth Not available.
UV 0 out of 12
Pollen 4.30 out of 12
Air Quality Not available.
Flu Activity Not available.
METAR KNUQ 040956Z AUTO 00000KT 10SM CLR 17/11 A2998 RMK AO2 SLP153 T01670111 TSNO

More Conditions Fewer Conditions

Pressure 29.99 in
Visibility 10.0 miles
Clouds Clear
Dew Point 50 °F
Humidity 69%
Rainfall 0.00 in
Snow Depth Not available.
UV 0 out of 12
Pollen 4.30 out of 12
Air Quality Not available.
Flu Activity Not available.
METAR KNUQ 040956Z AUTO 00000KT 10SM CLR 17/11 A2998 RMK AO2 SLP153 T01670111 TSNO

More Conditions Fewer Conditions

10-Day Weather Forecast

×

Almanac

Astronomy

Aug. 04, 2015 Rise Set
Actual Time
Civil Twilight
Nautical Twilight
Astronomical Twilight
Moon
Length of Visible Light
Length of Day
Tomorrow will be .
, % of the Moon is Illuminated

Today's Extremes

State Highs State Lows

Community

WunderPhotos

Upload Photos

1,843,882 photos uploaded!

WunderBlogs® & News

Nearby

Air Quality

  Air Quality AQ Index Pollutant
Not available.

Snow Depth

Station Depth Elevation

Earthquake Activity

City Distance Mag. Time & Date
Minimum magnitude displayed is 2.5.

Coastal Water Temperatures

Place Temperature

Stations

Nearby Weather Stations

Station Location Temp. Windchill Dew Point Humidity Wind Precip. Elev Updated Type